Archival Weather

Eureka

Eureka, Canada (CWEU)

Report from: Wednesday, January 25, 2023 12:00 PM CST
Current time: Saturday, April 1, 2023 9:41 AM CDT

Current weather
Weather history
Weather forecast

Present weatherIce crystals
Temperature-40.0°C (-40.0°F)
Dew point-44.0°C (-47.2°F)
Winds 2 kts (1 m/s, 2.3 mph) Northeast (40°)
Visibility15 mi. (24.1 km)
Clouds Sky clear
Altimeter29.95 in.Hg (1014 mB)
Relative humidity65 %
Density altitude-7,433 ft. (-2,266 m)
Sea-level pressure101.6 kPa (1016 mB, 30.01 in.Hg)
Flight conditions Visual Meteorological Conditions
Raw dataCWEU 251800Z 04002KT 15SM IC SKC M40/M44 A2995 RMK SLP163
An error has occurred. This application may no longer respond until reloaded. Reload 🗙